sensor_id;sensor_type;location;lat;lon;timestamp;P1;durP1;ratioP1;P2;durP2;ratioP2
74074;SDS011;62428;51.412;5.432;2022-07-29T00:02:25;4.28;;;1.00;;
74074;SDS011;62428;51.412;5.432;2022-07-29T00:04:52;6.57;;;1.00;;
74074;SDS011;62428;51.412;5.432;2022-07-29T00:07:17;6.15;;;0.95;;
74074;SDS011;62428;51.412;5.432;2022-07-29T00:09:43;2.87;;;0.63;;
74074;SDS011;62428;51.412;5.432;2022-07-29T00:12:08;4.70;;;0.63;;
74074;SDS011;62428;51.412;5.432;2022-07-29T00:14:34;4.20;;;0.93;;
74074;SDS011;62428;51.412;5.432;2022-07-29T00:16:59;3.87;;;0.90;;
74074;SDS011;62428;51.412;5.432;2022-07-29T00:19:25;2.53;;;0.70;;
74074;SDS011;62428;51.412;5.432;2022-07-29T00:21:50;5.17;;;0.80;;
74074;SDS011;62428;51.412;5.432;2022-07-29T00:24:15;3.78;;;0.63;;
74074;SDS011;62428;51.412;5.432;2022-07-29T00:26:41;4.13;;;0.87;;
74074;SDS011;62428;51.412;5.432;2022-07-29T00:29:06;9.47;;;0.90;;
74074;SDS011;62428;51.412;5.432;2022-07-29T00:31:31;5.90;;;1.10;;
74074;SDS011;62428;51.412;5.432;2022-07-29T00:33:57;3.07;;;0.90;;
74074;SDS011;62428;51.412;5.432;2022-07-29T00:36:22;6.87;;;1.00;;
74074;SDS011;62428;51.412;5.432;2022-07-29T00:38:48;5.22;;;1.10;;
74074;SDS011;62428;51.412;5.432;2022-07-29T00:41:15;4.67;;;1.33;;
74074;SDS011;62428;51.412;5.432;2022-07-29T00:43:40;6.90;;;1.40;;
74074;SDS011;62428;51.412;5.432;2022-07-29T00:46:06;7.43;;;1.75;;
74074;SDS011;62428;51.412;5.432;2022-07-29T00:48:31;7.43;;;1.17;;
74074;SDS011;62428;51.412;5.432;2022-07-29T00:50:57;5.13;;;1.50;;
74074;SDS011;62428;51.412;5.432;2022-07-29T00:53:24;7.20;;;1.55;;
74074;SDS011;62428;51.412;5.432;2022-07-29T00:55:51;5.10;;;1.45;;
74074;SDS011;62428;51.412;5.432;2022-07-29T00:58:18;6.30;;;1.83;;
74074;SDS011;62428;51.412;5.432;2022-07-29T01:00:44;5.60;;;1.50;;
74074;SDS011;62428;51.412;5.432;2022-07-29T01:03:09;6.60;;;1.60;;
74074;SDS011;62428;51.412;5.432;2022-07-29T01:05:35;4.67;;;1.50;;
74074;SDS011;62428;51.412;5.432;2022-07-29T01:08:00;4.50;;;1.30;;
74074;SDS011;62428;51.412;5.432;2022-07-29T01:10:27;5.00;;;1.40;;
74074;SDS011;62428;51.412;5.432;2022-07-29T01:12:54;5.28;;;1.50;;
74074;SDS011;62428;51.412;5.432;2022-07-29T01:15:23;5.50;;;1.35;;
74074;SDS011;62428;51.412;5.432;2022-07-29T01:20:46;3.92;;;1.27;;
74074;SDS011;62428;51.412;5.432;2022-07-29T01:23:40;7.00;;;1.40;;
74074;SDS011;62428;51.412;5.432;2022-07-29T01:37:23;5.72;;;1.92;;
74074;SDS011;62428;51.412;5.432;2022-07-29T01:39:55;7.38;;;1.90;;
74074;SDS011;62428;51.412;5.432;2022-07-29T01:42:34;7.43;;;1.83;;
74074;SDS011;62428;51.412;5.432;2022-07-29T01:50:16;7.47;;;1.40;;
74074;SDS011;62428;51.412;5.432;2022-07-29T01:52:52;4.78;;;1.75;;
74074;SDS011;62428;51.412;5.432;2022-07-29T01:55:22;3.55;;;1.80;;
74074;SDS011;62428;51.412;5.432;2022-07-29T01:57:51;5.40;;;1.70;;
74074;SDS011;62428;51.412;5.432;2022-07-29T02:00:17;4.57;;;2.13;;
74074;SDS011;62428;51.412;5.432;2022-07-29T02:02:43;4.73;;;1.97;;
74074;SDS011;62428;51.412;5.432;2022-07-29T02:05:12;5.38;;;2.30;;
74074;SDS011;62428;51.412;5.432;2022-07-29T02:07:40;6.88;;;2.13;;
74074;SDS011;62428;51.412;5.432;2022-07-29T02:10:08;6.28;;;2.00;;
74074;SDS011;62428;51.412;5.432;2022-07-29T02:12:35;6.25;;;2.38;;
74074;SDS011;62428;51.412;5.432;2022-07-29T02:15:02;5.80;;;2.20;;
74074;SDS011;62428;51.412;5.432;2022-07-29T02:17:33;6.50;;;2.30;;
74074;SDS011;62428;51.412;5.432;2022-07-29T02:20:04;8.10;;;2.20;;
74074;SDS011;62428;51.412;5.432;2022-07-29T02:22:31;3.05;;;1.90;;
74074;SDS011;62428;51.412;5.432;2022-07-29T02:25:00;5.32;;;2.40;;
74074;SDS011;62428;51.412;5.432;2022-07-29T02:27:26;4.30;;;2.27;;
74074;SDS011;62428;51.412;5.432;2022-07-29T02:29:53;3.47;;;2.45;;
74074;SDS011;62428;51.412;5.432;2022-07-29T02:32:21;3.80;;;2.20;;
74074;SDS011;62428;51.412;5.432;2022-07-29T02:34:49;6.57;;;2.67;;
74074;SDS011;62428;51.412;5.432;2022-07-29T02:37:16;4.97;;;2.50;;
74074;SDS011;62428;51.412;5.432;2022-07-29T02:39:43;5.07;;;2.50;;
74074;SDS011;62428;51.412;5.432;2022-07-29T02:42:11;6.03;;;2.35;;
74074;SDS011;62428;51.412;5.432;2022-07-29T02:44:39;4.88;;;2.38;;
74074;SDS011;62428;51.412;5.432;2022-07-29T02:49:37;6.28;;;2.50;;
74074;SDS011;62428;51.412;5.432;2022-07-29T02:52:08;5.05;;;2.55;;
74074;SDS011;62428;51.412;5.432;2022-07-29T02:54:42;7.13;;;2.78;;
74074;SDS011;62428;51.412;5.432;2022-07-29T02:57:54;3.90;;;2.50;;
74074;SDS011;62428;51.412;5.432;2022-07-29T03:00:05;6.27;;;2.53;;
74074;SDS011;62428;51.412;5.432;2022-07-29T03:02:34;5.95;;;2.72;;
74074;SDS011;62428;51.412;5.432;2022-07-29T03:05:04;4.20;;;2.53;;
74074;SDS011;62428;51.412;5.432;2022-07-29T03:07:33;7.47;;;2.63;;
74074;SDS011;62428;51.412;5.432;2022-07-29T03:10:00;5.65;;;2.40;;
74074;SDS011;62428;51.412;5.432;2022-07-29T03:12:27;6.67;;;2.60;;
74074;SDS011;62428;51.412;5.432;2022-07-29T03:14:54;6.60;;;2.78;;
74074;SDS011;62428;51.412;5.432;2022-07-29T03:17:21;5.05;;;2.70;;
74074;SDS011;62428;51.412;5.432;2022-07-29T03:19:47;4.47;;;2.80;;
74074;SDS011;62428;51.412;5.432;2022-07-29T03:22:12;7.30;;;3.00;;
74074;SDS011;62428;51.412;5.432;2022-07-29T03:24:39;6.90;;;3.10;;
74074;SDS011;62428;51.412;5.432;2022-07-29T03:27:04;4.13;;;2.40;;
74074;SDS011;62428;51.412;5.432;2022-07-29T03:29:30;5.78;;;2.70;;
74074;SDS011;62428;51.412;5.432;2022-07-29T03:31:55;5.93;;;2.70;;
74074;SDS011;62428;51.412;5.432;2022-07-29T03:34:21;5.67;;;2.80;;
74074;SDS011;62428;51.412;5.432;2022-07-29T03:36:46;5.75;;;2.80;;
74074;SDS011;62428;51.412;5.432;2022-07-29T03:39:13;4.90;;;2.83;;
74074;SDS011;62428;51.412;5.432;2022-07-29T03:41:47;3.75;;;2.65;;
74074;SDS011;62428;51.412;5.432;2022-07-29T03:44:17;4.82;;;2.40;;
74074;SDS011;62428;51.412;5.432;2022-07-29T03:46:44;8.05;;;2.55;;
74074;SDS011;62428;51.412;5.432;2022-07-29T03:49:10;6.40;;;2.83;;
74074;SDS011;62428;51.412;5.432;2022-07-29T03:51:39;5.32;;;2.40;;
74074;SDS011;62428;51.412;5.432;2022-07-29T03:54:05;4.75;;;2.20;;
74074;SDS011;62428;51.412;5.432;2022-07-29T03:56:32;5.30;;;2.20;;
74074;SDS011;62428;51.412;5.432;2022-07-29T03:59:02;4.53;;;2.40;;
74074;SDS011;62428;51.412;5.432;2022-07-29T04:01:29;5.72;;;2.30;;
74074;SDS011;62428;51.412;5.432;2022-07-29T04:03:57;5.60;;;2.50;;
74074;SDS011;62428;51.412;5.432;2022-07-29T04:06:22;8.82;;;2.55;;
74074;SDS011;62428;51.412;5.432;2022-07-29T04:08:48;8.40;;;2.50;;
74074;SDS011;62428;51.412;5.432;2022-07-29T04:11:13;6.50;;;2.60;;
74074;SDS011;62428;51.412;5.432;2022-07-29T04:13:39;10.30;;;2.92;;
74074;SDS011;62428;51.412;5.432;2022-07-29T04:16:04;5.13;;;3.37;;
74074;SDS011;62428;51.412;5.432;2022-07-29T04:18:30;7.43;;;3.20;;
74074;SDS011;62428;51.412;5.432;2022-07-29T04:20:55;8.20;;;3.37;;
74074;SDS011;62428;51.412;5.432;2022-07-29T04:23:21;5.45;;;2.72;;
74074;SDS011;62428;51.412;5.432;2022-07-29T04:25:46;6.23;;;3.17;;
74074;SDS011;62428;51.412;5.432;2022-07-29T04:28:12;6.50;;;3.10;;
74074;SDS011;62428;51.412;5.432;2022-07-29T04:30:37;6.97;;;3.13;;
74074;SDS011;62428;51.412;5.432;2022-07-29T04:33:04;5.30;;;3.20;;
74074;SDS011;62428;51.412;5.432;2022-07-29T04:35:31;4.97;;;3.00;;
74074;SDS011;62428;51.412;5.432;2022-07-29T04:37:59;4.43;;;2.80;;
74074;SDS011;62428;51.412;5.432;2022-07-29T04:40:25;5.20;;;2.67;;
74074;SDS011;62428;51.412;5.432;2022-07-29T04:42:50;4.80;;;2.87;;
74074;SDS011;62428;51.412;5.432;2022-07-29T04:45:16;4.17;;;2.97;;
74074;SDS011;62428;51.412;5.432;2022-07-29T04:47:41;3.67;;;2.90;;
74074;SDS011;62428;51.412;5.432;2022-07-29T04:50:07;5.83;;;3.13;;
74074;SDS011;62428;51.412;5.432;2022-07-29T04:52:33;5.47;;;3.55;;
74074;SDS011;62428;51.412;5.432;2022-07-29T04:55:00;6.63;;;3.22;;
74074;SDS011;62428;51.412;5.432;2022-07-29T04:57:26;6.05;;;3.17;;
74074;SDS011;62428;51.412;5.432;2022-07-29T04:59:51;5.13;;;2.87;;
74074;SDS011;62428;51.412;5.432;2022-07-29T05:02:16;5.73;;;2.90;;
74074;SDS011;62428;51.412;5.432;2022-07-29T05:04:42;5.50;;;2.80;;
74074;SDS011;62428;51.412;5.432;2022-07-29T05:07:07;5.07;;;2.70;;
74074;SDS011;62428;51.412;5.432;2022-07-29T05:09:32;6.60;;;2.80;;
74074;SDS011;62428;51.412;5.432;2022-07-29T05:11:58;5.67;;;3.00;;
74074;SDS011;62428;51.412;5.432;2022-07-29T05:14:23;7.33;;;2.73;;
74074;SDS011;62428;51.412;5.432;2022-07-29T05:16:48;6.80;;;3.03;;
74074;SDS011;62428;51.412;5.432;2022-07-29T05:19:15;6.37;;;2.87;;
74074;SDS011;62428;51.412;5.432;2022-07-29T05:21:41;6.32;;;2.63;;
74074;SDS011;62428;51.412;5.432;2022-07-29T05:24:06;5.93;;;3.10;;
74074;SDS011;62428;51.412;5.432;2022-07-29T05:26:32;8.07;;;3.60;;
74074;SDS011;62428;51.412;5.432;2022-07-29T05:28:58;9.43;;;3.37;;
74074;SDS011;62428;51.412;5.432;2022-07-29T05:31:23;5.07;;;3.23;;
74074;SDS011;62428;51.412;5.432;2022-07-29T05:33:48;6.73;;;3.63;;
74074;SDS011;62428;51.412;5.432;2022-07-29T05:36:14;11.47;;;3.53;;
74074;SDS011;62428;51.412;5.432;2022-07-29T05:38:39;8.67;;;3.70;;
74074;SDS011;62428;51.412;5.432;2022-07-29T05:41:05;4.80;;;3.33;;
74074;SDS011;62428;51.412;5.432;2022-07-29T05:43:30;9.40;;;3.47;;
74074;SDS011;62428;51.412;5.432;2022-07-29T05:45:56;6.50;;;3.40;;
74074;SDS011;62428;51.412;5.432;2022-07-29T05:48:21;6.90;;;3.70;;
74074;SDS011;62428;51.412;5.432;2022-07-29T05:50:47;6.97;;;3.57;;
74074;SDS011;62428;51.412;5.432;2022-07-29T05:53:12;8.00;;;3.80;;
74074;SDS011;62428;51.412;5.432;2022-07-29T05:55:37;9.07;;;3.53;;
74074;SDS011;62428;51.412;5.432;2022-07-29T05:58:02;6.37;;;3.93;;
74074;SDS011;62428;51.412;5.432;2022-07-29T06:00:28;9.13;;;3.60;;
74074;SDS011;62428;51.412;5.432;2022-07-29T06:02:53;7.03;;;3.50;;
74074;SDS011;62428;51.412;5.432;2022-07-29T06:05:18;7.57;;;3.73;;
74074;SDS011;62428;51.412;5.432;2022-07-29T06:07:44;4.10;;;3.58;;
74074;SDS011;62428;51.412;5.432;2022-07-29T06:10:09;6.83;;;3.67;;
74074;SDS011;62428;51.412;5.432;2022-07-29T06:12:35;6.60;;;4.27;;
74074;SDS011;62428;51.412;5.432;2022-07-29T06:15:00;7.18;;;4.18;;
74074;SDS011;62428;51.412;5.432;2022-07-29T06:17:26;7.33;;;4.07;;
74074;SDS011;62428;51.412;5.432;2022-07-29T06:19:51;7.07;;;4.13;;
74074;SDS011;62428;51.412;5.432;2022-07-29T06:22:16;9.97;;;4.30;;
74074;SDS011;62428;51.412;5.432;2022-07-29T06:24:42;8.67;;;3.67;;
74074;SDS011;62428;51.412;5.432;2022-07-29T06:27:09;6.68;;;4.38;;
74074;SDS011;62428;51.412;5.432;2022-07-29T06:29:35;8.40;;;4.18;;
74074;SDS011;62428;51.412;5.432;2022-07-29T06:32:01;8.43;;;4.60;;
74074;SDS011;62428;51.412;5.432;2022-07-29T06:34:27;5.45;;;3.67;;
74074;SDS011;62428;51.412;5.432;2022-07-29T06:36:52;5.83;;;4.20;;
74074;SDS011;62428;51.412;5.432;2022-07-29T06:39:17;9.10;;;4.20;;
74074;SDS011;62428;51.412;5.432;2022-07-29T06:41:46;7.38;;;4.38;;
74074;SDS011;62428;51.412;5.432;2022-07-29T06:44:12;6.43;;;4.40;;
74074;SDS011;62428;51.412;5.432;2022-07-29T06:46:38;7.43;;;4.90;;
74074;SDS011;62428;51.412;5.432;2022-07-29T06:49:04;9.82;;;5.07;;
74074;SDS011;62428;51.412;5.432;2022-07-29T06:51:29;10.90;;;5.40;;
74074;SDS011;62428;51.412;5.432;2022-07-29T06:53:55;8.73;;;4.90;;
74074;SDS011;62428;51.412;5.432;2022-07-29T06:56:22;12.50;;;5.32;;
74074;SDS011;62428;51.412;5.432;2022-07-29T06:58:48;9.55;;;5.07;;
74074;SDS011;62428;51.412;5.432;2022-07-29T07:01:13;10.63;;;5.40;;
74074;SDS011;62428;51.412;5.432;2022-07-29T07:03:38;9.33;;;5.27;;
74074;SDS011;62428;51.412;5.432;2022-07-29T07:06:04;12.00;;;5.80;;
74074;SDS011;62428;51.412;5.432;2022-07-29T07:08:29;7.93;;;5.38;;
74074;SDS011;62428;51.412;5.432;2022-07-29T07:10:55;11.17;;;6.00;;
74074;SDS011;62428;51.412;5.432;2022-07-29T07:13:21;9.32;;;5.93;;
74074;SDS011;62428;51.412;5.432;2022-07-29T07:15:47;11.63;;;6.20;;
74074;SDS011;62428;51.412;5.432;2022-07-29T07:18:13;12.38;;;6.15;;
74074;SDS011;62428;51.412;5.432;2022-07-29T07:20:40;14.50;;;6.10;;
74074;SDS011;62428;51.412;5.432;2022-07-29T07:23:05;8.30;;;5.80;;
74074;SDS011;62428;51.412;5.432;2022-07-29T07:25:31;9.07;;;5.43;;
74074;SDS011;62428;51.412;5.432;2022-07-29T07:27:56;7.67;;;5.43;;
74074;SDS011;62428;51.412;5.432;2022-07-29T07:30:22;8.80;;;5.50;;
74074;SDS011;62428;51.412;5.432;2022-07-29T07:32:47;9.17;;;5.37;;
74074;SDS011;62428;51.412;5.432;2022-07-29T07:35:13;8.38;;;4.63;;
74074;SDS011;62428;51.412;5.432;2022-07-29T07:37:39;9.33;;;5.03;;
74074;SDS011;62428;51.412;5.432;2022-07-29T07:40:08;9.23;;;4.30;;
74074;SDS011;62428;51.412;5.432;2022-07-29T07:42:36;8.93;;;5.25;;
74074;SDS011;62428;51.412;5.432;2022-07-29T07:45:02;6.70;;;4.67;;
74074;SDS011;62428;51.412;5.432;2022-07-29T07:47:27;13.70;;;5.10;;
74074;SDS011;62428;51.412;5.432;2022-07-29T07:49:53;8.77;;;4.77;;
74074;SDS011;62428;51.412;5.432;2022-07-29T07:52:19;7.90;;;4.17;;
74074;SDS011;62428;51.412;5.432;2022-07-29T07:54:46;6.22;;;4.00;;
74074;SDS011;62428;51.412;5.432;2022-07-29T07:57:12;10.10;;;4.50;;
74074;SDS011;62428;51.412;5.432;2022-07-29T07:59:38;6.53;;;4.28;;
74074;SDS011;62428;51.412;5.432;2022-07-29T08:02:04;7.13;;;4.40;;
74074;SDS011;62428;51.412;5.432;2022-07-29T08:04:30;6.40;;;4.50;;
74074;SDS011;62428;51.412;5.432;2022-07-29T08:06:55;9.35;;;4.60;;
74074;SDS011;62428;51.412;5.432;2022-07-29T08:09:22;9.17;;;4.80;;
74074;SDS011;62428;51.412;5.432;2022-07-29T08:11:49;8.40;;;4.72;;
74074;SDS011;62428;51.412;5.432;2022-07-29T08:14:15;10.17;;;4.70;;
74074;SDS011;62428;51.412;5.432;2022-07-29T08:16:40;10.83;;;5.13;;
74074;SDS011;62428;51.412;5.432;2022-07-29T08:19:07;9.75;;;4.90;;
74074;SDS011;62428;51.412;5.432;2022-07-29T08:21:32;7.07;;;5.00;;
74074;SDS011;62428;51.412;5.432;2022-07-29T08:23:57;7.47;;;4.22;;
74074;SDS011;62428;51.412;5.432;2022-07-29T08:26:42;10.05;;;3.85;;
74074;SDS011;62428;51.412;5.432;2022-07-29T08:29:08;6.80;;;4.70;;
74074;SDS011;62428;51.412;5.432;2022-07-29T08:31:34;11.23;;;4.18;;
74074;SDS011;62428;51.412;5.432;2022-07-29T08:34:00;10.93;;;4.65;;
74074;SDS011;62428;51.412;5.432;2022-07-29T08:36:27;8.50;;;4.45;;
74074;SDS011;62428;51.412;5.432;2022-07-29T08:38:53;9.37;;;5.00;;
74074;SDS011;62428;51.412;5.432;2022-07-29T08:41:19;11.47;;;4.43;;
74074;SDS011;62428;51.412;5.432;2022-07-29T08:43:45;8.82;;;4.60;;
74074;SDS011;62428;51.412;5.432;2022-07-29T08:46:11;8.55;;;4.32;;
74074;SDS011;62428;51.412;5.432;2022-07-29T08:48:36;8.80;;;4.87;;
74074;SDS011;62428;51.412;5.432;2022-07-29T08:51:03;8.98;;;4.45;;
74074;SDS011;62428;51.412;5.432;2022-07-29T08:53:32;8.48;;;4.43;;
74074;SDS011;62428;51.412;5.432;2022-07-29T08:55:58;7.73;;;4.10;;
74074;SDS011;62428;51.412;5.432;2022-07-29T08:58:24;7.00;;;3.92;;
74074;SDS011;62428;51.412;5.432;2022-07-29T09:00:51;10.00;;;4.60;;
74074;SDS011;62428;51.412;5.432;2022-07-29T09:03:18;8.33;;;5.07;;
74074;SDS011;62428;51.412;5.432;2022-07-29T09:05:48;8.00;;;4.25;;
74074;SDS011;62428;51.412;5.432;2022-07-29T09:08:14;10.43;;;5.13;;
74074;SDS011;62428;51.412;5.432;2022-07-29T09:10:40;8.80;;;4.80;;
74074;SDS011;62428;51.412;5.432;2022-07-29T09:13:05;7.57;;;4.27;;
74074;SDS011;62428;51.412;5.432;2022-07-29T09:15:31;10.07;;;4.57;;
74074;SDS011;62428;51.412;5.432;2022-07-29T09:17:56;8.90;;;4.57;;
74074;SDS011;62428;51.412;5.432;2022-07-29T09:20:23;7.07;;;4.50;;
74074;SDS011;62428;51.412;5.432;2022-07-29T09:22:50;5.65;;;4.13;;
74074;SDS011;62428;51.412;5.432;2022-07-29T09:25:31;6.85;;;4.20;;
74074;SDS011;62428;51.412;5.432;2022-07-29T09:28:05;8.55;;;4.30;;
74074;SDS011;62428;51.412;5.432;2022-07-29T09:30:55;7.88;;;3.30;;
74074;SDS011;62428;51.412;5.432;2022-07-29T09:33:22;6.87;;;3.40;;
74074;SDS011;62428;51.412;5.432;2022-07-29T09:36:04;5.68;;;3.28;;
74074;SDS011;62428;51.412;5.432;2022-07-29T09:38:34;5.85;;;3.38;;
74074;SDS011;62428;51.412;5.432;2022-07-29T09:41:01;5.28;;;3.15;;
74074;SDS011;62428;51.412;5.432;2022-07-29T09:43:27;5.15;;;3.03;;
74074;SDS011;62428;51.412;5.432;2022-07-29T09:45:53;5.73;;;2.87;;
74074;SDS011;62428;51.412;5.432;2022-07-29T09:48:20;4.88;;;2.67;;
74074;SDS011;62428;51.412;5.432;2022-07-29T09:50:46;8.48;;;3.00;;
74074;SDS011;62428;51.412;5.432;2022-07-29T09:53:57;5.70;;;3.30;;
74074;SDS011;62428;51.412;5.432;2022-07-29T09:56:04;7.10;;;3.37;;
74074;SDS011;62428;51.412;5.432;2022-07-29T09:58:30;5.97;;;3.45;;
74074;SDS011;62428;51.412;5.432;2022-07-29T10:00:58;6.65;;;3.40;;
74074;SDS011;62428;51.412;5.432;2022-07-29T10:03:24;10.57;;;3.23;;
74074;SDS011;62428;51.412;5.432;2022-07-29T10:06:03;7.60;;;3.60;;
74074;SDS011;62428;51.412;5.432;2022-07-29T10:08:36;7.93;;;3.47;;
74074;SDS011;62428;51.412;5.432;2022-07-29T10:11:18;6.15;;;3.47;;
74074;SDS011;62428;51.412;5.432;2022-07-29T10:13:45;7.10;;;3.35;;
74074;SDS011;62428;51.412;5.432;2022-07-29T10:16:12;7.97;;;3.20;;
74074;SDS011;62428;51.412;5.432;2022-07-29T10:18:39;5.90;;;3.90;;
74074;SDS011;62428;51.412;5.432;2022-07-29T10:21:06;11.35;;;3.72;;
74074;SDS011;62428;51.412;5.432;2022-07-29T10:23:32;6.47;;;3.25;;
74074;SDS011;62428;51.412;5.432;2022-07-29T10:25:59;6.80;;;3.33;;
74074;SDS011;62428;51.412;5.432;2022-07-29T10:28:25;9.27;;;2.97;;
74074;SDS011;62428;51.412;5.432;2022-07-29T10:30:51;8.35;;;3.05;;
74074;SDS011;62428;51.412;5.432;2022-07-29T10:44:43;3.33;;;2.03;;
74074;SDS011;62428;51.412;5.432;2022-07-29T10:49:56;5.22;;;2.05;;
74074;SDS011;62428;51.412;5.432;2022-07-29T10:55:33;6.47;;;1.95;;
74074;SDS011;62428;51.412;5.432;2022-07-29T10:58:11;4.68;;;2.30;;
74074;SDS011;62428;51.412;5.432;2022-07-29T11:00:40;6.35;;;1.85;;
74074;SDS011;62428;51.412;5.432;2022-07-29T11:03:06;4.20;;;2.37;;
74074;SDS011;62428;51.412;5.432;2022-07-29T11:05:50;5.23;;;2.90;;
74074;SDS011;62428;51.412;5.432;2022-07-29T11:08:18;3.67;;;2.38;;
74074;SDS011;62428;51.412;5.432;2022-07-29T11:10:50;3.88;;;2.35;;
74074;SDS011;62428;51.412;5.432;2022-07-29T11:16:15;6.77;;;2.53;;
74074;SDS011;62428;51.412;5.432;2022-07-29T11:21:36;4.53;;;1.90;;
74074;SDS011;62428;51.412;5.432;2022-07-29T11:27:15;4.00;;;1.83;;
74074;SDS011;62428;51.412;5.432;2022-07-29T11:29:49;10.13;;;2.70;;
74074;SDS011;62428;51.412;5.432;2022-07-29T11:32:16;5.93;;;2.38;;
74074;SDS011;62428;51.412;5.432;2022-07-29T11:34:44;5.30;;;2.08;;
74074;SDS011;62428;51.412;5.432;2022-07-29T11:47:21;5.28;;;2.50;;
74074;SDS011;62428;51.412;5.432;2022-07-29T11:49:47;9.18;;;2.40;;
74074;SDS011;62428;51.412;5.432;2022-07-29T11:52:19;5.90;;;1.70;;
74074;SDS011;62428;51.412;5.432;2022-07-29T11:54:47;4.17;;;1.67;;
74074;SDS011;62428;51.412;5.432;2022-07-29T11:57:14;4.10;;;1.75;;
74074;SDS011;62428;51.412;5.432;2022-07-29T11:59:42;6.30;;;1.90;;
74074;SDS011;62428;51.412;5.432;2022-07-29T12:02:09;4.32;;;1.80;;
74074;SDS011;62428;51.412;5.432;2022-07-29T12:04:48;5.38;;;1.80;;
74074;SDS011;62428;51.412;5.432;2022-07-29T12:07:14;5.70;;;1.80;;
74074;SDS011;62428;51.412;5.432;2022-07-29T12:09:41;3.80;;;1.80;;
74074;SDS011;62428;51.412;5.432;2022-07-29T12:12:15;5.43;;;2.17;;
74074;SDS011;62428;51.412;5.432;2022-07-29T12:14:41;8.43;;;2.50;;
74074;SDS011;62428;51.412;5.432;2022-07-29T12:17:24;3.45;;;2.13;;
74074;SDS011;62428;51.412;5.432;2022-07-29T12:20:01;2.27;;;1.67;;
74074;SDS011;62428;51.412;5.432;2022-07-29T12:22:29;4.53;;;1.77;;
74074;SDS011;62428;51.412;5.432;2022-07-29T12:25:00;4.32;;;2.08;;
74074;SDS011;62428;51.412;5.432;2022-07-29T12:27:29;3.75;;;1.63;;
74074;SDS011;62428;51.412;5.432;2022-07-29T12:29:56;7.55;;;2.10;;
74074;SDS011;62428;51.412;5.432;2022-07-29T12:32:23;4.07;;;1.60;;
74074;SDS011;62428;51.412;5.432;2022-07-29T12:34:48;3.90;;;1.65;;
74074;SDS011;62428;51.412;5.432;2022-07-29T12:37:15;3.63;;;1.92;;
74074;SDS011;62428;51.412;5.432;2022-07-29T12:39:40;3.70;;;1.87;;
74074;SDS011;62428;51.412;5.432;2022-07-29T12:42:12;3.47;;;1.45;;
74074;SDS011;62428;51.412;5.432;2022-07-29T12:44:45;3.78;;;1.77;;
74074;SDS011;62428;51.412;5.432;2022-07-29T12:47:12;3.80;;;2.10;;
74074;SDS011;62428;51.412;5.432;2022-07-29T12:49:37;3.43;;;1.47;;
74074;SDS011;62428;51.412;5.432;2022-07-29T12:52:22;2.50;;;1.80;;
74074;SDS011;62428;51.412;5.432;2022-07-29T12:54:48;5.10;;;2.27;;
74074;SDS011;62428;51.412;5.432;2022-07-29T12:57:14;4.30;;;1.85;;
74074;SDS011;62428;51.412;5.432;2022-07-29T12:59:39;4.67;;;1.77;;
74074;SDS011;62428;51.412;5.432;2022-07-29T13:02:04;3.80;;;2.00;;
74074;SDS011;62428;51.412;5.432;2022-07-29T13:04:33;3.80;;;1.90;;
74074;SDS011;62428;51.412;5.432;2022-07-29T13:07:02;2.58;;;2.10;;
74074;SDS011;62428;51.412;5.432;2022-07-29T13:09:41;5.03;;;2.00;;
74074;SDS011;62428;51.412;5.432;2022-07-29T13:12:11;4.43;;;1.70;;
74074;SDS011;62428;51.412;5.432;2022-07-29T13:14:40;3.25;;;1.67;;
74074;SDS011;62428;51.412;5.432;2022-07-29T13:17:19;5.20;;;2.35;;
74074;SDS011;62428;51.412;5.432;2022-07-29T13:19:51;6.88;;;2.00;;
74074;SDS011;62428;51.412;5.432;2022-07-29T13:22:19;5.85;;;2.03;;
74074;SDS011;62428;51.412;5.432;2022-07-29T13:27:16;4.20;;;1.67;;
74074;SDS011;62428;51.412;5.432;2022-07-29T13:29:42;3.15;;;2.10;;
74074;SDS011;62428;51.412;5.432;2022-07-29T13:32:08;4.47;;;1.73;;
74074;SDS011;62428;51.412;5.432;2022-07-29T13:34:33;4.27;;;2.07;;
74074;SDS011;62428;51.412;5.432;2022-07-29T13:36:59;6.90;;;2.50;;
74074;SDS011;62428;51.412;5.432;2022-07-29T13:39:24;3.30;;;2.07;;
74074;SDS011;62428;51.412;5.432;2022-07-29T13:41:49;4.27;;;1.77;;
74074;SDS011;62428;51.412;5.432;2022-07-29T13:44:15;3.80;;;1.77;;
74074;SDS011;62428;51.412;5.432;2022-07-29T13:46:41;3.77;;;1.80;;
74074;SDS011;62428;51.412;5.432;2022-07-29T13:49:06;7.67;;;1.90;;
74074;SDS011;62428;51.412;5.432;2022-07-29T13:51:31;3.17;;;1.93;;
74074;SDS011;62428;51.412;5.432;2022-07-29T13:53:57;4.80;;;1.73;;
74074;SDS011;62428;51.412;5.432;2022-07-29T13:56:22;3.90;;;1.50;;
74074;SDS011;62428;51.412;5.432;2022-07-29T13:58:48;5.10;;;2.10;;
74074;SDS011;62428;51.412;5.432;2022-07-29T14:01:13;7.83;;;2.00;;
74074;SDS011;62428;51.412;5.432;2022-07-29T14:03:38;5.83;;;2.17;;
74074;SDS011;62428;51.412;5.432;2022-07-29T14:06:06;4.60;;;1.83;;
74074;SDS011;62428;51.412;5.432;2022-07-29T14:08:31;3.42;;;1.70;;
74074;SDS011;62428;51.412;5.432;2022-07-29T14:11:00;6.50;;;2.10;;
74074;SDS011;62428;51.412;5.432;2022-07-29T14:13:25;5.60;;;2.13;;
74074;SDS011;62428;51.412;5.432;2022-07-29T14:15:51;2.73;;;1.70;;
74074;SDS011;62428;51.412;5.432;2022-07-29T14:18:16;7.60;;;1.90;;
74074;SDS011;62428;51.412;5.432;2022-07-29T14:20:41;3.83;;;1.80;;
74074;SDS011;62428;51.412;5.432;2022-07-29T14:23:07;5.63;;;1.77;;
74074;SDS011;62428;51.412;5.432;2022-07-29T14:25:32;2.78;;;1.60;;
74074;SDS011;62428;51.412;5.432;2022-07-29T14:27:58;3.77;;;1.50;;
74074;SDS011;62428;51.412;5.432;2022-07-29T14:30:23;3.03;;;1.67;;
74074;SDS011;62428;51.412;5.432;2022-07-29T14:32:48;8.23;;;2.10;;
74074;SDS011;62428;51.412;5.432;2022-07-29T14:35:14;7.65;;;2.22;;
74074;SDS011;62428;51.412;5.432;2022-07-29T14:37:40;3.77;;;1.70;;
74074;SDS011;62428;51.412;5.432;2022-07-29T14:40:05;6.97;;;2.00;;
74074;SDS011;62428;51.412;5.432;2022-07-29T14:42:31;6.03;;;2.13;;
74074;SDS011;62428;51.412;5.432;2022-07-29T14:44:57;4.57;;;1.83;;
74074;SDS011;62428;51.412;5.432;2022-07-29T14:47:22;7.35;;;1.60;;
74074;SDS011;62428;51.412;5.432;2022-07-29T14:49:48;5.93;;;1.63;;
74074;SDS011;62428;51.412;5.432;2022-07-29T14:52:14;4.78;;;2.38;;
74074;SDS011;62428;51.412;5.432;2022-07-29T14:54:39;7.10;;;2.20;;
74074;SDS011;62428;51.412;5.432;2022-07-29T14:57:05;5.57;;;2.00;;
74074;SDS011;62428;51.412;5.432;2022-07-29T14:59:30;4.10;;;1.80;;
74074;SDS011;62428;51.412;5.432;2022-07-29T15:01:55;9.65;;;1.90;;
74074;SDS011;62428;51.412;5.432;2022-07-29T15:04:21;5.53;;;1.87;;
74074;SDS011;62428;51.412;5.432;2022-07-29T15:06:46;3.93;;;1.53;;
74074;SDS011;62428;51.412;5.432;2022-07-29T15:09:12;6.37;;;1.83;;
74074;SDS011;62428;51.412;5.432;2022-07-29T15:11:37;7.25;;;1.73;;
74074;SDS011;62428;51.412;5.432;2022-07-29T15:14:03;4.03;;;1.80;;
74074;SDS011;62428;51.412;5.432;2022-07-29T15:16:28;3.53;;;1.80;;
74074;SDS011;62428;51.412;5.432;2022-07-29T15:18:53;5.33;;;1.90;;
74074;SDS011;62428;51.412;5.432;2022-07-29T15:21:19;4.53;;;1.90;;
74074;SDS011;62428;51.412;5.432;2022-07-29T15:23:44;5.63;;;1.70;;
74074;SDS011;62428;51.412;5.432;2022-07-29T15:26:09;5.40;;;1.77;;
74074;SDS011;62428;51.412;5.432;2022-07-29T15:28:35;3.10;;;1.50;;
74074;SDS011;62428;51.412;5.432;2022-07-29T15:31:00;3.93;;;1.80;;
74074;SDS011;62428;51.412;5.432;2022-07-29T15:33:25;5.00;;;1.60;;
74074;SDS011;62428;51.412;5.432;2022-07-29T15:35:51;6.13;;;1.67;;
74074;SDS011;62428;51.412;5.432;2022-07-29T15:38:16;8.80;;;1.83;;
74074;SDS011;62428;51.412;5.432;2022-07-29T15:40:42;3.47;;;1.57;;
74074;SDS011;62428;51.412;5.432;2022-07-29T15:43:08;8.18;;;2.03;;
74074;SDS011;62428;51.412;5.432;2022-07-29T15:45:37;2.97;;;1.80;;
74074;SDS011;62428;51.412;5.432;2022-07-29T15:48:05;4.35;;;1.50;;
74074;SDS011;62428;51.412;5.432;2022-07-29T15:50:31;5.07;;;1.65;;